CEB3FE RPLL-RPUH
Flight info
| Callsign | CEB3FE |
|---|---|
| Flight time | 0h 30m |
| Altitude | 19000 |
| Route | VERDE2R VERDE A461 TAPAP/N0387F180 |
| Aircraft | A320/M-SDE2E3GHIJ1J3J4J5LM1ORWXYZ/C |
Departure
| Time | 2026-04-20 07:14 |
|---|---|
| Airport | Ninoy Aquino International Airport (RPLL) |
Arrival
| Time | 2026-04-20 07:45 |
|---|---|
| Airport | San Jose Airport (RPUH) |
| Time | Latitude | Longitude | Altitude | Speed | Heading |
|---|---|---|---|---|---|
| 2026-04-20 06:53 | 14.51702 | 121.01657 | 69 ft | 0 kts | 226° |
| 2026-04-20 07:03 | 14.51710 | 121.01666 | 62 ft | 2 kts | 224° |
| 2026-04-20 07:04 | 14.51722 | 121.01678 | 60 ft | 2 kts | 225° |
| 2026-04-20 07:04 | 14.51733 | 121.01690 | 61 ft | 2 kts | 224° |
| 2026-04-20 07:04 | 14.51745 | 121.01702 | 59 ft | 2 kts | 218° |
| 2026-04-20 07:04 | 14.51760 | 121.01711 | 63 ft | 2 kts | 152° |
| 2026-04-20 07:05 | 14.51765 | 121.01707 | 62 ft | 0 kts | 131° |
| 2026-04-20 07:07 | 14.51749 | 121.01724 | 64 ft | 7 kts | 134° |
| 2026-04-20 07:07 | 14.51703 | 121.01772 | 62 ft | 12 kts | 140° |
| 2026-04-20 07:08 | 14.51613 | 121.01765 | 69 ft | 15 kts | 221° |
| 2026-04-20 07:08 | 14.51541 | 121.01690 | 62 ft | 15 kts | 224° |
| 2026-04-20 07:08 | 14.51468 | 121.01619 | 60 ft | 14 kts | 218° |
| 2026-04-20 07:08 | 14.51392 | 121.01565 | 65 ft | 10 kts | 193° |
| 2026-04-20 07:09 | 14.51334 | 121.01608 | 66 ft | 12 kts | 138° |
| 2026-04-20 07:09 | 14.51271 | 121.01673 | 64 ft | 14 kts | 131° |
| 2026-04-20 07:09 | 14.51199 | 121.01752 | 65 ft | 16 kts | 135° |
| 2026-04-20 07:09 | 14.51114 | 121.01837 | 65 ft | 18 kts | 134° |
| 2026-04-20 07:10 | 14.51039 | 121.01915 | 66 ft | 10 kts | 136° |
| 2026-04-20 07:10 | 14.50986 | 121.01892 | 60 ft | 11 kts | 243° |
| 2026-04-20 07:10 | 14.50957 | 121.01838 | 59 ft | 15 kts | 240° |
| 2026-04-20 07:10 | 14.50867 | 121.01678 | 64 ft | 23 kts | 239° |
| 2026-04-20 07:11 | 14.50779 | 121.01518 | 64 ft | 28 kts | 241° |
| 2026-04-20 07:11 | 14.50678 | 121.01336 | 66 ft | 28 kts | 240° |
| 2026-04-20 07:11 | 14.50577 | 121.01156 | 67 ft | 30 kts | 240° |
| 2026-04-20 07:11 | 14.50473 | 121.00966 | 62 ft | 31 kts | 240° |
| 2026-04-20 07:12 | 14.50362 | 121.00768 | 63 ft | 33 kts | 239° |
| 2026-04-20 07:12 | 14.50256 | 121.00577 | 68 ft | 28 kts | 240° |
| 2026-04-20 07:12 | 14.50194 | 121.00465 | 63 ft | 24 kts | 240° |
| 2026-04-20 07:12 | 14.50123 | 121.00358 | 63 ft | 8 kts | 202° |
| 2026-04-20 07:13 | 14.50090 | 121.00366 | 68 ft | 8 kts | 150° |
| 2026-04-20 07:13 | 14.50037 | 121.00401 | 62 ft | 11 kts | 148° |
| 2026-04-20 07:13 | 14.50035 | 121.00464 | 62 ft | 11 kts | 56° |
| 2026-04-20 07:13 | 14.50111 | 121.00594 | 63 ft | 38 kts | 59° |
| 2026-04-20 07:14 | 14.50260 | 121.00864 | 68 ft | 89 kts | 60° |
| 2026-04-20 07:14 | 14.50674 | 121.01608 | 66 ft | 148 kts | 60° |
| 2026-04-20 07:14 | 14.51255 | 121.02628 | 421 ft | 168 kts | 60° |
| 2026-04-20 07:14 | 14.51877 | 121.03670 | 1099 ft | 174 kts | 58° |
| 2026-04-20 07:15 | 14.52525 | 121.04755 | 1800 ft | 180 kts | 60° |
| 2026-04-20 07:15 | 14.53201 | 121.05899 | 2390 ft | 193 kts | 59° |
| 2026-04-20 07:15 | 14.53944 | 121.07144 | 2725 ft | 215 kts | 58° |
| 2026-04-20 07:15 | 14.54800 | 121.08542 | 3029 ft | 243 kts | 57° |
| 2026-04-20 07:16 | 14.55779 | 121.10074 | 3436 ft | 271 kts | 54° |
| 2026-04-20 07:16 | 14.56758 | 121.11784 | 4178 ft | 275 kts | 74° |
| 2026-04-20 07:16 | 14.56826 | 121.13711 | 5248 ft | 271 kts | 106° |
| 2026-04-20 07:16 | 14.55860 | 121.15377 | 6177 ft | 276 kts | 136° |
| 2026-04-20 07:17 | 14.54238 | 121.16442 | 7057 ft | 281 kts | 158° |
| 2026-04-20 07:17 | 14.52297 | 121.16789 | 7947 ft | 289 kts | 181° |
| 2026-04-20 07:17 | 14.50281 | 121.16566 | 8906 ft | 293 kts | 185° |
| 2026-04-20 07:17 | 14.48241 | 121.16301 | 9789 ft | 297 kts | 186° |
| 2026-04-20 07:18 | 14.46155 | 121.16020 | 10342 ft | 313 kts | 186° |
| 2026-04-20 07:18 | 14.43911 | 121.15716 | 10608 ft | 337 kts | 187° |
| 2026-04-20 07:18 | 14.41516 | 121.15390 | 10967 ft | 355 kts | 187° |
| 2026-04-20 07:18 | 14.39045 | 121.15055 | 11619 ft | 361 kts | 186° |
| 2026-04-20 07:19 | 14.36537 | 121.14717 | 12286 ft | 367 kts | 186° |
| 2026-04-20 07:19 | 14.33988 | 121.14375 | 12943 ft | 372 kts | 187° |
| 2026-04-20 07:19 | 14.31407 | 121.14029 | 13658 ft | 375 kts | 186° |
| 2026-04-20 07:19 | 14.28795 | 121.13678 | 14234 ft | 380 kts | 186° |
| 2026-04-20 07:20 | 14.26155 | 121.13323 | 14804 ft | 385 kts | 186° |
| 2026-04-20 07:20 | 14.23484 | 121.12961 | 15424 ft | 388 kts | 186° |
| 2026-04-20 07:20 | 14.20795 | 121.12598 | 16053 ft | 391 kts | 187° |
| 2026-04-20 07:20 | 14.18090 | 121.12232 | 16658 ft | 393 kts | 187° |
| 2026-04-20 07:21 | 14.15367 | 121.11866 | 17230 ft | 397 kts | 187° |
| 2026-04-20 07:21 | 14.12619 | 121.11499 | 17788 ft | 400 kts | 187° |
| 2026-04-20 07:21 | 14.09854 | 121.11131 | 18328 ft | 402 kts | 187° |
| 2026-04-20 07:21 | 14.07065 | 121.10762 | 18718 ft | 405 kts | 187° |
| 2026-04-20 07:22 | 14.04268 | 121.10391 | 18840 ft | 407 kts | 187° |
| 2026-04-20 07:22 | 14.01409 | 121.10009 | 18876 ft | 421 kts | 187° |
| 2026-04-20 07:22 | 13.98485 | 121.09613 | 18874 ft | 425 kts | 187° |
| 2026-04-20 07:22 | 13.95547 | 121.09214 | 18873 ft | 427 kts | 187° |
| 2026-04-20 07:23 | 13.92604 | 121.08816 | 18874 ft | 427 kts | 187° |
| 2026-04-20 07:23 | 13.89652 | 121.08419 | 18873 ft | 427 kts | 187° |
| 2026-04-20 07:23 | 13.86707 | 121.08023 | 18873 ft | 427 kts | 187° |
| 2026-04-20 07:23 | 13.83762 | 121.07629 | 18879 ft | 427 kts | 187° |
| 2026-04-20 07:24 | 13.80820 | 121.07239 | 18874 ft | 426 kts | 187° |
| 2026-04-20 07:24 | 13.77875 | 121.06851 | 18874 ft | 426 kts | 187° |
| 2026-04-20 07:24 | 13.74935 | 121.06462 | 18873 ft | 427 kts | 186° |
| 2026-04-20 07:24 | 13.71988 | 121.06070 | 18879 ft | 427 kts | 187° |
| 2026-04-20 07:25 | 13.69043 | 121.05676 | 18877 ft | 427 kts | 187° |
| 2026-04-20 07:25 | 13.66097 | 121.05282 | 18875 ft | 427 kts | 187° |
| 2026-04-20 07:25 | 13.63151 | 121.04886 | 18876 ft | 427 kts | 187° |
| 2026-04-20 07:25 | 13.60210 | 121.04489 | 18887 ft | 427 kts | 187° |
| 2026-04-20 07:26 | 13.57265 | 121.04094 | 18887 ft | 427 kts | 186° |
| 2026-04-20 07:26 | 13.54317 | 121.03703 | 18886 ft | 427 kts | 187° |
| 2026-04-20 07:26 | 13.51374 | 121.03318 | 18886 ft | 427 kts | 186° |
| 2026-04-20 07:26 | 13.48412 | 121.03202 | 18895 ft | 426 kts | 179° |
| 2026-04-20 07:27 | 13.45453 | 121.03239 | 18896 ft | 426 kts | 178° |
| 2026-04-20 07:27 | 13.42487 | 121.03271 | 18897 ft | 426 kts | 178° |
| 2026-04-20 07:27 | 13.39522 | 121.03296 | 18898 ft | 426 kts | 179° |
| 2026-04-20 07:27 | 13.36564 | 121.03319 | 18906 ft | 425 kts | 179° |
| 2026-04-20 07:28 | 13.33606 | 121.03345 | 18905 ft | 425 kts | 178° |
| 2026-04-20 07:28 | 13.30649 | 121.03373 | 18902 ft | 425 kts | 178° |
| 2026-04-20 07:28 | 13.27692 | 121.03403 | 18900 ft | 425 kts | 178° |
| 2026-04-20 07:28 | 13.24729 | 121.03444 | 18901 ft | 425 kts | 177° |
| 2026-04-20 07:29 | 13.21769 | 121.03587 | 18906 ft | 425 kts | 175° |
| 2026-04-20 07:29 | 13.18825 | 121.03834 | 18906 ft | 425 kts | 174° |
| 2026-04-20 07:29 | 13.15915 | 121.04133 | 18905 ft | 425 kts | 173° |
| 2026-04-20 07:29 | 13.12985 | 121.04453 | 18906 ft | 425 kts | 173° |
| 2026-04-20 07:30 | 13.10001 | 121.04775 | 18904 ft | 425 kts | 173° |
| 2026-04-20 07:30 | 13.07354 | 121.05046 | 18906 ft | 425 kts | 174° |
| 2026-04-20 07:30 | 13.04414 | 121.05331 | 18908 ft | 425 kts | 174° |
| 2026-04-20 07:30 | 13.01558 | 121.05590 | 18714 ft | 412 kts | 174° |
| 2026-04-20 07:31 | 12.98682 | 121.05843 | 17718 ft | 420 kts | 174° |
| 2026-04-20 07:31 | 12.95784 | 121.06096 | 17138 ft | 414 kts | 174° |
| 2026-04-20 07:31 | 12.92934 | 121.06345 | 16581 ft | 409 kts | 174° |
| 2026-04-20 07:31 | 12.90111 | 121.06594 | 16003 ft | 405 kts | 174° |
| 2026-04-20 07:32 | 12.87308 | 121.06846 | 15432 ft | 403 kts | 174° |
| 2026-04-20 07:32 | 12.84526 | 121.07098 | 14816 ft | 400 kts | 174° |
| 2026-04-20 07:32 | 12.81763 | 121.07348 | 14228 ft | 398 kts | 174° |
| 2026-04-20 07:32 | 12.79011 | 121.07596 | 13623 ft | 396 kts | 174° |
| 2026-04-20 07:33 | 12.76268 | 121.07844 | 12970 ft | 394 kts | 173° |
| 2026-04-20 07:33 | 12.73556 | 121.08089 | 12352 ft | 388 kts | 173° |
| 2026-04-20 07:33 | 12.70929 | 121.08325 | 11751 ft | 369 kts | 174° |
| 2026-04-20 07:33 | 12.68435 | 121.08547 | 11162 ft | 352 kts | 173° |
| 2026-04-20 07:34 | 12.66050 | 121.08759 | 10685 ft | 335 kts | 172° |
| 2026-04-20 07:34 | 12.63821 | 121.08956 | 10598 ft | 308 kts | 172° |
| 2026-04-20 07:34 | 12.61766 | 121.09138 | 10525 ft | 285 kts | 172° |
| 2026-04-20 07:35 | 12.58072 | 121.09468 | 10277 ft | 249 kts | 171° |
| 2026-04-20 07:35 | 12.56399 | 121.09618 | 10164 ft | 234 kts | 171° |
| 2026-04-20 07:35 | 12.54843 | 121.09881 | 9991 ft | 222 kts | 158° |
| 2026-04-20 07:35 | 12.53463 | 121.10529 | 9791 ft | 216 kts | 143° |
| 2026-04-20 07:36 | 12.52288 | 121.11509 | 9417 ft | 223 kts | 129° |
| 2026-04-20 07:36 | 12.51382 | 121.12807 | 9009 ft | 227 kts | 115° |
| 2026-04-20 07:36 | 12.50837 | 121.14312 | 8632 ft | 224 kts | 103° |
| 2026-04-20 07:36 | 12.50434 | 121.15841 | 8260 ft | 222 kts | 104° |
| 2026-04-20 07:37 | 12.50022 | 121.17367 | 7816 ft | 222 kts | 104° |
| 2026-04-20 07:37 | 12.49609 | 121.18888 | 7387 ft | 222 kts | 104° |
| 2026-04-20 07:37 | 12.49194 | 121.20415 | 6962 ft | 222 kts | 105° |
| 2026-04-20 07:37 | 12.48780 | 121.21940 | 6541 ft | 222 kts | 104° |
| 2026-04-20 07:38 | 12.48364 | 121.23455 | 6119 ft | 221 kts | 107° |
| 2026-04-20 07:38 | 12.47594 | 121.24800 | 5672 ft | 223 kts | 133° |
| 2026-04-20 07:38 | 12.46261 | 121.25624 | 5212 ft | 230 kts | 160° |
| 2026-04-20 07:38 | 12.44651 | 121.25676 | 4796 ft | 238 kts | 190° |
| 2026-04-20 07:39 | 12.43069 | 121.25229 | 4400 ft | 232 kts | 192° |
| 2026-04-20 07:39 | 12.41547 | 121.24791 | 4012 ft | 223 kts | 192° |
| 2026-04-20 07:39 | 12.40060 | 121.24365 | 3638 ft | 221 kts | 193° |
| 2026-04-20 07:39 | 12.38592 | 121.23943 | 3249 ft | 217 kts | 194° |
| 2026-04-20 07:40 | 12.37144 | 121.23529 | 2855 ft | 215 kts | 194° |
| 2026-04-20 07:40 | 12.35727 | 121.23125 | 2479 ft | 213 kts | 195° |
| 2026-04-20 07:40 | 12.34288 | 121.22716 | 2082 ft | 212 kts | 195° |
| 2026-04-20 07:40 | 12.32948 | 121.22259 | 1958 ft | 200 kts | 212° |
| 2026-04-20 07:41 | 12.32076 | 121.21244 | 1972 ft | 184 kts | 250° |
| 2026-04-20 07:41 | 12.32012 | 121.20033 | 1963 ft | 165 kts | 284° |
| 2026-04-20 07:41 | 12.32317 | 121.18952 | 1996 ft | 150 kts | 285° |
| 2026-04-20 07:41 | 12.32597 | 121.17948 | 1970 ft | 143 kts | 284° |
| 2026-04-20 07:42 | 12.32868 | 121.16973 | 1960 ft | 142 kts | 283° |
| 2026-04-20 07:42 | 12.33164 | 121.16013 | 1866 ft | 141 kts | 284° |
| 2026-04-20 07:42 | 12.33438 | 121.15052 | 1744 ft | 140 kts | 281° |
| 2026-04-20 07:42 | 12.33688 | 121.14098 | 1575 ft | 139 kts | 281° |
| 2026-04-20 07:43 | 12.33852 | 121.13456 | 1446 ft | 138 kts | 281° |
| 2026-04-20 07:43 | 12.34188 | 121.12219 | 1341 ft | 136 kts | 283° |
| 2026-04-20 07:43 | 12.34428 | 121.11283 | 1180 ft | 136 kts | 280° |
| 2026-04-20 07:43 | 12.34664 | 121.10338 | 1042 ft | 138 kts | 282° |
| 2026-04-20 07:44 | 12.34921 | 121.09384 | 853 ft | 140 kts | 282° |
| 2026-04-20 07:44 | 12.35184 | 121.08408 | 630 ft | 145 kts | 281° |
| 2026-04-20 07:44 | 12.35438 | 121.07398 | 464 ft | 146 kts | 281° |
| 2026-04-20 07:44 | 12.35699 | 121.06413 | 249 ft | 142 kts | 281° |
| 2026-04-20 07:45 | 12.35949 | 121.05442 | 49 ft | 141 kts | 281° |
| 2026-04-20 07:45 | 12.36157 | 121.04606 | 20 ft | 79 kts | 286° |
| 2026-04-20 07:45 | 12.36244 | 121.04307 | 22 ft | 35 kts | 285° |
| 2026-04-20 07:45 | 12.36308 | 121.04098 | 25 ft | 23 kts | 295° |
| 2026-04-20 07:46 | 12.36315 | 121.04031 | 24 ft | 4 kts | 179° |
| 2026-04-20 07:46 | 12.36303 | 121.04047 | 25 ft | 5 kts | 109° |
| 2026-04-20 07:46 | 12.36283 | 121.04150 | 24 ft | 19 kts | 102° |
| 2026-04-20 07:46 | 12.36252 | 121.04292 | 22 ft | 22 kts | 101° |
| 2026-04-20 07:47 | 12.36210 | 121.04428 | 22 ft | 18 kts | 128° |
| 2026-04-20 07:47 | 12.36143 | 121.04474 | 22 ft | 9 kts | 149° |
| 2026-04-20 07:47 | 12.36110 | 121.04519 | 23 ft | 8 kts | 109° |
| 2026-04-20 07:47 | 12.36079 | 121.04539 | 20 ft | 4 kts | 200° |
| 2026-04-20 07:48 | 12.36059 | 121.04532 | 19 ft | 0 kts | 195° |